首页
METAR-TAF:

METAR-TAF

机场 :

科尔多瓦, 阿根廷

纬度: 31-19S, 经度: 064-13W, 海拔: 484米

当前天气观测

该预报发布于44分钟前的17:00 UTC
风速7节,风向东转东北,在北转东北之间变化
温度 19°C
湿度 30%
气压 1014 hPa
能见度10公里或以上
1500米以下无云,无积雨云

METAR: SACO 061700Z 07007KT 020V100 CAVOK 19/01 Q1014 NOSIG

时间: 14:44 (17:44 UTC)

预报

该预报发布于44分钟前的17:00 UTC
预报有效从06日的 18点(UTC)到 07日的 18点(UTC)
风速10节,风向东北
能见度10公里或以上
1500米以下无云,无积雨云
成为
从 06日的 23点(UTC)到 07日的 01点(UTC)
风速5节,风向
成为
从 07日的 06点(UTC)到 07日的 08点(UTC)
风速5节,风向
成为
从 07日的 14点(UTC)到 07日的 16点(UTC)
风速15节,风向东北

TAF: SACO 061700Z 0618/0718 05010KT CAVOK TX24/0718Z TN05/0710Z BECMG 0623/0701 36005KT BECMG 0706/0708 18005KT BECMG 0714/0716 05015KT

超过4000个机场的气象观测和天气预报(METAR&TAF报告)。

可查询的气象台以黄色和红色小点在地图上表示。

将鼠标移到小点上方,可查看气象台名称。

然后点击查看天气观测和预报。

如需切换地图:点击带黑十字的绿色按钮放大地图;点击带横线的绿色按钮缩小地图;或者点击绿色箭头查看邻近地区的地图。


METAR-TAF: